createdAt,value
2023-05-10T00:01:49.110Z,75584.88
2023-05-10T00:04:16.998Z,75580.78
2023-05-10T00:06:44.810Z,75580.78
2023-05-10T00:09:12.656Z,75572.63
2023-05-10T00:11:40.393Z,75576.72
2023-05-10T00:14:08.150Z,75576.72
2023-05-10T00:16:37.439Z,75574.69
2023-05-10T00:19:05.226Z,75574.69
2023-05-10T00:21:34.591Z,75576.72
2023-05-10T00:24:02.427Z,75570.59
2023-05-10T00:26:30.243Z,75572.63
2023-05-10T00:28:59.546Z,75566.53
2023-05-10T00:31:27.393Z,75564.47
2023-05-10T00:33:56.909Z,75560.41
2023-05-10T00:36:24.658Z,75562.44
2023-05-10T00:38:52.488Z,75558.38
2023-05-10T00:41:20.224Z,75560.41
2023-05-10T00:43:47.996Z,75562.44
2023-05-10T00:46:17.440Z,75568.56
2023-05-10T00:48:46.800Z,75574.69
2023-05-10T00:51:16.150Z,75570.59
2023-05-10T00:53:44.809Z,75564.47
2023-05-10T00:56:13.313Z,75564.47
2023-05-10T00:58:42.037Z,75564.47
2023-05-10T01:01:10.436Z,75560.41
2023-05-10T01:03:38.830Z,75564.47
2023-05-10T01:06:07.488Z,75572.63
2023-05-10T01:08:36.580Z,75576.72
2023-05-10T01:11:04.393Z,75578.75
2023-05-10T01:13:35.381Z,75580.78
2023-05-10T01:16:04.344Z,75580.78
2023-05-10T01:18:35.117Z,75576.72
2023-05-10T01:21:16.968Z,75580.78
2023-05-10T01:24:09.010Z,75578.75
2023-05-10T01:27:11.197Z,75586.91
2023-05-10T01:30:14.157Z,75588.94
2023-05-10T01:32:48.015Z,75593.03
2023-05-10T01:35:22.459Z,75593.03
2023-05-10T01:37:57.071Z,75597.09
2023-05-10T01:40:31.482Z,75599.13
2023-05-10T01:43:04.929Z,75601.19
2023-05-10T01:45:38.997Z,75601.19
2023-05-10T01:48:11.602Z,75615.44
2023-05-10T01:50:43.695Z,75621.56
2023-05-10T01:53:13.613Z,75625.63
2023-05-10T01:55:45.756Z,75625.63
2023-05-10T01:58:17.390Z,75617.50
2023-05-10T02:00:46.938Z,75605.25
2023-05-10T02:03:18.374Z,75609.34
2023-05-10T02:05:48.759Z,75617.50
2023-05-10T02:08:19.658Z,75605.25
2023-05-10T02:10:49.621Z,75605.25
2023-05-10T02:13:18.922Z,75617.50
2023-05-10T02:15:50.060Z,75615.44
2023-05-10T02:18:20.358Z,75625.63
2023-05-10T02:20:49.078Z,75637.88
2023-05-10T02:23:19.307Z,75650.09
2023-05-10T02:25:50.002Z,75658.25
2023-05-10T02:28:22.166Z,75672.53
2023-05-10T02:30:50.284Z,75686.78
2023-05-10T02:33:20.563Z,75690.88
2023-05-10T02:35:49.750Z,75686.78
2023-05-10T02:38:18.571Z,75694.94
2023-05-10T02:40:48.339Z,75705.16
2023-05-10T02:43:19.138Z,75711.25
2023-05-10T02:45:49.776Z,75719.41
2023-05-10T02:48:19.481Z,75721.44
2023-05-10T02:50:52.378Z,75727.56
2023-05-10T02:53:24.616Z,75739.81
2023-05-10T02:55:56.169Z,75747.94
2023-05-10T02:58:23.937Z,75754.06
2023-05-10T03:00:51.879Z,75772.41
2023-05-10T03:03:22.063Z,75776.50
2023-05-10T03:05:49.813Z,75780.56
2023-05-10T03:08:17.940Z,75790.75
2023-05-10T03:10:57.521Z,75796.88
2023-05-10T03:13:36.303Z,75796.88
2023-05-10T03:16:10.566Z,75803.00
2023-05-10T03:18:46.261Z,75805.03
2023-05-10T03:21:17.236Z,75817.25
2023-05-10T03:23:48.452Z,75831.53
2023-05-10T03:26:22.771Z,75833.56
2023-05-10T03:28:51.848Z,75831.53
2023-05-10T03:31:20.643Z,75843.75
2023-05-10T03:33:50.474Z,75853.97
2023-05-10T03:36:18.302Z,75853.97
2023-05-10T03:38:46.211Z,75862.13
2023-05-10T03:41:14.011Z,75862.13
2023-05-10T03:43:42.181Z,75853.97
2023-05-10T03:46:09.938Z,75864.16
2023-05-10T03:48:37.740Z,75860.06
2023-05-10T03:51:07.076Z,75858.03
2023-05-10T03:53:34.810Z,75841.72
2023-05-10T03:56:02.595Z,75823.38
2023-05-10T03:58:30.379Z,75821.34
2023-05-10T04:00:58.134Z,75811.16
2023-05-10T04:03:26.891Z,75796.88
2023-05-10T04:06:01.290Z,75788.72
2023-05-10T04:08:30.648Z,75778.53
2023-05-10T04:11:07.317Z,75768.34
2023-05-10T04:13:35.491Z,75758.16
2023-05-10T04:16:03.646Z,75745.91
2023-05-10T04:18:31.577Z,75739.81
2023-05-10T04:20:59.477Z,75727.56
2023-05-10T04:23:27.982Z,75721.44
2023-05-10T04:26:02.742Z,75713.28
2023-05-10T04:28:30.539Z,75715.34
2023-05-10T04:31:03.398Z,75703.09
2023-05-10T04:33:31.853Z,75699.03
2023-05-10T04:35:59.593Z,75690.88
2023-05-10T04:38:27.921Z,75690.88
2023-05-10T04:40:56.057Z,75680.69
2023-05-10T04:43:25.122Z,75678.63
2023-05-10T04:45:52.893Z,75672.53
2023-05-10T04:48:20.705Z,75670.50
2023-05-10T04:50:48.486Z,75664.38
2023-05-10T04:53:16.212Z,75654.19
2023-05-10T04:55:44.233Z,75648.06
2023-05-10T04:58:11.972Z,75644.00
2023-05-10T05:00:41.420Z,75639.91
2023-05-10T05:03:09.307Z,75633.78
2023-05-10T05:05:37.132Z,75625.63
2023-05-10T05:08:05.382Z,75621.56
2023-05-10T05:10:33.169Z,75621.56
2023-05-10T05:13:00.945Z,75615.44
2023-05-10T05:15:28.723Z,75605.25
2023-05-10T05:17:57.937Z,75601.19
2023-05-10T05:20:25.688Z,75593.03
2023-05-10T05:22:53.528Z,75584.88
2023-05-10T05:25:21.367Z,75572.63
2023-05-10T05:27:49.090Z,75570.59
2023-05-10T05:30:17.261Z,75568.56
2023-05-10T05:32:45.270Z,75564.47
2023-05-10T05:35:14.748Z,75556.34
2023-05-10T05:37:42.512Z,75548.19
2023-05-10T05:40:14.121Z,75546.13
2023-05-10T05:42:42.332Z,75540.03
2023-05-10T05:45:14.116Z,75531.88
2023-05-10T05:47:42.219Z,75527.78
2023-05-10T05:50:11.123Z,75529.84
2023-05-10T05:52:40.234Z,75523.72
2023-05-10T05:55:08.570Z,75511.47
2023-05-10T05:57:36.292Z,75507.41
2023-05-10T06:00:04.569Z,75507.41
2023-05-10T06:02:32.413Z,75501.28
2023-05-10T06:05:00.333Z,75493.13
2023-05-10T06:07:28.107Z,75493.13
2023-05-10T06:09:57.268Z,75495.19
2023-05-10T06:12:25.000Z,75497.22
2023-05-10T06:14:52.756Z,75495.19
2023-05-10T06:17:20.530Z,75482.94
2023-05-10T06:19:48.254Z,75482.94
2023-05-10T06:22:16.015Z,75487.03
2023-05-10T06:24:44.537Z,75482.94
2023-05-10T06:27:13.611Z,75470.72
2023-05-10T06:29:41.328Z,75466.63
2023-05-10T06:32:09.171Z,75460.53
2023-05-10T06:34:36.920Z,75454.41
2023-05-10T06:37:04.708Z,75450.34
2023-05-10T06:39:32.499Z,75442.19
2023-05-10T06:42:00.237Z,75432.00
2023-05-10T06:44:29.332Z,75423.84
2023-05-10T06:46:57.249Z,75421.78
2023-05-10T06:49:24.987Z,75421.78
2023-05-10T06:51:52.877Z,75415.69
2023-05-10T06:54:20.703Z,75405.50
2023-05-10T06:56:48.447Z,75399.38
2023-05-10T06:59:17.459Z,75397.34
2023-05-10T07:01:46.725Z,75385.09
2023-05-10T07:04:14.727Z,75381.03
2023-05-10T07:06:42.562Z,75376.94
2023-05-10T07:09:10.369Z,75370.84
2023-05-10T07:11:38.516Z,75364.72
2023-05-10T07:14:06.271Z,75360.66
2023-05-10T07:16:34.757Z,75348.41
2023-05-10T07:19:06.323Z,75348.41
2023-05-10T07:21:34.255Z,75344.34
2023-05-10T07:24:02.232Z,75342.28
2023-05-10T07:26:30.029Z,75338.22
2023-05-10T07:28:57.822Z,75336.19
2023-05-10T07:31:25.718Z,75328.03
2023-05-10T07:33:53.431Z,75326.00
2023-05-10T07:36:22.623Z,75315.81
2023-05-10T07:38:50.690Z,75307.66
2023-05-10T07:41:18.433Z,75303.56
2023-05-10T07:43:46.193Z,75291.34
2023-05-10T07:46:14.001Z,75281.16
2023-05-10T07:48:41.776Z,75279.09
2023-05-10T07:51:10.490Z,75275.03
2023-05-10T07:53:39.960Z,75270.97
2023-05-10T07:56:23.976Z,75258.72
2023-05-10T07:58:51.739Z,75250.56
2023-05-10T08:01:20.017Z,75240.38
2023-05-10T08:03:48.005Z,75224.06
2023-05-10T08:06:16.481Z,75201.66
2023-05-10T08:08:46.595Z,75173.13
2023-05-10T08:11:14.948Z,75156.81
2023-05-10T08:13:42.750Z,75136.44
2023-05-10T08:16:10.536Z,75116.06
2023-05-10T08:18:38.955Z,75099.75
2023-05-10T08:21:07.088Z,75099.75
2023-05-10T08:23:35.028Z,75095.66
2023-05-10T08:26:04.157Z,75093.63
2023-05-10T08:28:32.004Z,75093.63
2023-05-10T08:31:01.835Z,75109.94
2023-05-10T08:33:29.675Z,75107.91
2023-05-10T08:35:57.478Z,75087.50
2023-05-10T08:38:25.817Z,75085.47
2023-05-10T08:40:59.375Z,75095.66
2023-05-10T08:43:30.764Z,75097.72
2023-05-10T08:46:01.793Z,75107.91
2023-05-10T08:48:31.845Z,75118.09
2023-05-10T08:51:02.986Z,75140.50
2023-05-10T08:53:32.889Z,75173.13
2023-05-10T08:56:00.858Z,75189.44
2023-05-10T08:58:30.616Z,75189.44
2023-05-10T09:00:59.329Z,75187.38
2023-05-10T09:03:27.504Z,75183.31
2023-05-10T09:05:56.842Z,75181.28
2023-05-10T09:08:27.406Z,75177.19
2023-05-10T09:10:56.152Z,75169.03
2023-05-10T09:13:25.143Z,75160.88
2023-05-10T09:15:54.985Z,75162.94
2023-05-10T09:18:22.766Z,75156.81
2023-05-10T09:20:50.676Z,75164.97
2023-05-10T09:23:18.414Z,75160.88
2023-05-10T09:25:46.273Z,75181.28
2023-05-10T09:28:14.403Z,75199.63
2023-05-10T09:30:43.883Z,75209.81
2023-05-10T09:33:13.050Z,75211.84
2023-05-10T09:35:41.189Z,75205.72
2023-05-10T09:38:08.989Z,75195.53
2023-05-10T09:40:36.909Z,75191.47
2023-05-10T09:43:07.018Z,75179.25
2023-05-10T09:45:44.051Z,75164.97
2023-05-10T09:48:13.240Z,75140.50
2023-05-10T09:50:41.319Z,75128.28
2023-05-10T09:53:09.132Z,75126.25
2023-05-10T09:55:41.784Z,75118.09
2023-05-10T09:58:11.641Z,75124.19
2023-05-10T10:00:41.210Z,75128.28
2023-05-10T10:03:16.392Z,75124.19
2023-05-10T10:05:44.953Z,75126.25
2023-05-10T10:08:13.935Z,75116.06
2023-05-10T10:10:42.822Z,75109.94
2023-05-10T10:13:10.645Z,75116.06
2023-05-10T10:15:38.850Z,75124.19
2023-05-10T10:18:07.387Z,75132.34
2023-05-10T10:20:39.598Z,75140.50
2023-05-10T10:23:07.351Z,75144.59
2023-05-10T10:25:35.294Z,75167.00
2023-05-10T10:28:18.403Z,75181.28
2023-05-10T10:30:50.432Z,75193.50
2023-05-10T10:33:38.392Z,75213.88
2023-05-10T10:36:08.679Z,75226.13
2023-05-10T10:38:58.925Z,75230.19
2023-05-10T10:41:35.130Z,75234.28
2023-05-10T10:44:39.076Z,75234.28
2023-05-10T10:47:30.934Z,75230.19
2023-05-10T10:50:06.961Z,75217.97
2023-05-10T10:52:37.222Z,75211.84
2023-05-10T10:55:07.649Z,75226.13
2023-05-10T10:57:45.357Z,75222.03
2023-05-10T11:00:31.732Z,75234.28
2023-05-10T11:03:01.807Z,75236.31
2023-05-10T11:05:39.086Z,75244.47
2023-05-10T11:08:20.157Z,75242.41
2023-05-10T11:11:04.414Z,75250.56
2023-05-10T11:13:34.489Z,75244.47
2023-05-10T11:16:13.509Z,75232.22
2023-05-10T11:18:41.419Z,75224.06
2023-05-10T11:21:11.644Z,75226.13
2023-05-10T11:23:57.109Z,75217.97
2023-05-10T11:26:26.587Z,75193.50
2023-05-10T11:28:57.074Z,75185.34
2023-05-10T11:31:27.643Z,75197.56
2023-05-10T11:33:57.294Z,75207.78
2023-05-10T11:36:28.358Z,75215.91
2023-05-10T11:38:58.551Z,75220.00
2023-05-10T11:41:27.233Z,75222.03
2023-05-10T11:43:56.416Z,75234.28
2023-05-10T11:46:26.260Z,75250.56
2023-05-10T11:48:56.046Z,75238.34
2023-05-10T11:51:25.383Z,75244.47
2023-05-10T11:53:55.943Z,75238.34
2023-05-10T11:56:27.117Z,75222.03
2023-05-10T11:58:56.448Z,75232.22
2023-05-10T12:01:25.142Z,75238.34
2023-05-10T12:03:54.809Z,75226.13
2023-05-10T12:06:23.265Z,75205.72
2023-05-10T12:08:53.570Z,75238.34
2023-05-10T12:11:22.755Z,75230.19
2023-05-10T12:13:52.713Z,75224.06
2023-05-10T12:16:21.897Z,75234.28
2023-05-10T12:18:52.010Z,75242.41
2023-05-10T12:21:21.333Z,75246.50
2023-05-10T12:23:50.561Z,75240.38
2023-05-10T12:26:18.606Z,75236.31
2023-05-10T12:28:46.386Z,75236.31
2023-05-10T12:31:15.705Z,75230.19
2023-05-10T12:33:45.538Z,75230.19
2023-05-10T12:36:14.840Z,75209.81
2023-05-10T12:38:44.456Z,75201.66
2023-05-10T12:41:13.994Z,75191.47
2023-05-10T12:43:42.378Z,75185.34
2023-05-10T12:46:11.378Z,75167.00
2023-05-10T12:48:41.634Z,75158.84
2023-05-10T12:51:10.460Z,75160.88
2023-05-10T12:53:38.347Z,75164.97
2023-05-10T12:56:06.940Z,75160.88
2023-05-10T12:58:35.940Z,75148.66
2023-05-10T13:01:05.095Z,75152.75
2023-05-10T13:03:33.079Z,75152.75
2023-05-10T13:06:02.246Z,75156.81
2023-05-10T13:08:34.086Z,75158.84
2023-05-10T13:11:02.295Z,75144.59
2023-05-10T13:13:30.160Z,75136.44
2023-05-10T13:15:57.856Z,75128.28
2023-05-10T13:18:27.243Z,75120.13
2023-05-10T13:20:56.708Z,75103.81
2023-05-10T13:23:26.933Z,75103.81
2023-05-10T13:25:54.678Z,75109.94
2023-05-10T13:28:22.387Z,75107.91
2023-05-10T13:30:50.093Z,75107.91
2023-05-10T13:33:17.872Z,75107.91
2023-05-10T13:35:46.089Z,75114.00
2023-05-10T13:38:15.074Z,75118.09
2023-05-10T13:40:44.191Z,75126.25
2023-05-10T13:43:12.099Z,75132.34
2023-05-10T13:45:39.858Z,75134.41
2023-05-10T13:48:07.885Z,75128.28
2023-05-10T13:50:35.657Z,75120.13
2023-05-10T13:53:03.478Z,75128.28
2023-05-10T13:55:31.587Z,75120.13
2023-05-10T13:58:01.126Z,75120.13
2023-05-10T14:00:28.875Z,75120.13
2023-05-10T14:02:56.688Z,75120.13
2023-05-10T14:05:26.261Z,75109.94
2023-05-10T14:07:54.658Z,75116.06
2023-05-10T14:10:22.508Z,75109.94
2023-05-10T14:12:52.383Z,75103.81
2023-05-10T14:15:21.546Z,75107.91
2023-05-10T14:17:49.323Z,75097.72
2023-05-10T14:20:17.228Z,75091.59
2023-05-10T14:22:44.910Z,75085.47
2023-05-10T14:25:12.856Z,75075.28
2023-05-10T14:27:40.681Z,75075.28
2023-05-10T14:30:09.703Z,75065.09
2023-05-10T14:32:38.972Z,75054.91
2023-05-10T14:35:09.005Z,75054.91
2023-05-10T14:37:38.650Z,75042.69
2023-05-10T14:40:08.208Z,75018.22
2023-05-10T14:42:35.919Z,75006.00
2023-05-10T14:45:03.946Z,75006.00
2023-05-10T14:47:31.935Z,75006.00
2023-05-10T14:50:01.159Z,74993.75
2023-05-10T14:52:28.948Z,74985.59
2023-05-10T14:54:57.060Z,74985.59
2023-05-10T14:57:24.723Z,74989.69
2023-05-10T14:59:52.465Z,74981.53
2023-05-10T15:02:20.439Z,74977.47
2023-05-10T15:04:48.267Z,74981.53
2023-05-10T15:07:19.256Z,74985.59
2023-05-10T15:09:47.155Z,74985.59
2023-05-10T15:12:14.842Z,74989.69
2023-05-10T15:14:42.571Z,74993.75
2023-05-10T15:17:11.062Z,74993.75
2023-05-10T15:19:38.825Z,75001.91
2023-05-10T15:22:07.176Z,75006.00
2023-05-10T15:24:36.231Z,75006.00
2023-05-10T15:27:03.929Z,75001.91
2023-05-10T15:29:32.418Z,75012.09
2023-05-10T15:32:00.286Z,75010.06
2023-05-10T15:34:29.190Z,75026.38
2023-05-10T15:36:57.473Z,75036.56
2023-05-10T15:39:25.198Z,75052.88
2023-05-10T15:41:54.241Z,75056.94
2023-05-10T15:44:21.990Z,75063.06
2023-05-10T15:46:49.748Z,75058.97
2023-05-10T15:49:18.054Z,75063.06
2023-05-10T15:51:45.914Z,75058.97
2023-05-10T15:54:13.779Z,75048.78
2023-05-10T15:56:41.883Z,75063.06
2023-05-10T15:59:11.853Z,75058.97
2023-05-10T16:01:39.781Z,75058.97
2023-05-10T16:04:07.516Z,75058.97
2023-05-10T16:06:36.349Z,75063.06
2023-05-10T16:09:04.297Z,75063.06
2023-05-10T16:11:32.203Z,75058.97
2023-05-10T16:14:00.611Z,75063.06
2023-05-10T16:16:30.030Z,75061.03
2023-05-10T16:19:01.064Z,75063.06
2023-05-10T16:21:29.588Z,75071.22
2023-05-10T16:23:57.334Z,75075.28
2023-05-10T16:26:25.088Z,75075.28
2023-05-10T16:28:53.000Z,75075.28
2023-05-10T16:31:20.798Z,75079.38
2023-05-10T16:33:50.542Z,75083.44
2023-05-10T16:36:18.350Z,75079.38
2023-05-10T16:38:46.070Z,75085.47
2023-05-10T16:41:13.825Z,75095.66
2023-05-10T16:43:41.604Z,75091.59
2023-05-10T16:46:12.606Z,75095.66
2023-05-10T16:48:40.517Z,75093.63
2023-05-10T16:51:10.128Z,75095.66
2023-05-10T16:53:38.065Z,75095.66
2023-05-10T16:56:06.144Z,75099.75
2023-05-10T16:58:35.136Z,75095.66
2023-05-10T17:01:02.981Z,75091.59
2023-05-10T17:03:31.043Z,75099.75
2023-05-10T17:05:59.040Z,75099.75
2023-05-10T17:08:28.174Z,75107.91
2023-05-10T17:10:56.309Z,75111.97
2023-05-10T17:13:24.091Z,75120.13
2023-05-10T17:15:51.919Z,75118.09
2023-05-10T17:18:19.821Z,75120.13
2023-05-10T17:20:47.711Z,75116.06
2023-05-10T17:23:15.762Z,75124.19
2023-05-10T17:25:44.851Z,75130.31
2023-05-10T17:28:12.618Z,75136.44
2023-05-10T17:30:40.364Z,75128.28
2023-05-10T17:33:08.143Z,75140.50
2023-05-10T17:35:36.014Z,75144.59
2023-05-10T17:38:03.733Z,75144.59
2023-05-10T17:40:32.122Z,75152.75
2023-05-10T17:43:01.325Z,75152.75
2023-05-10T17:45:29.391Z,75158.84
2023-05-10T17:47:57.217Z,75160.88
2023-05-10T17:50:25.035Z,75169.03
2023-05-10T17:52:52.823Z,75169.03
2023-05-10T17:55:20.585Z,75169.03
2023-05-10T17:57:50.584Z,75181.28
2023-05-10T18:00:21.311Z,75177.19
2023-05-10T18:02:49.145Z,75185.34
2023-05-10T18:05:17.497Z,75195.53
2023-05-10T18:07:45.562Z,75191.47
2023-05-10T18:10:13.596Z,75197.56
2023-05-10T18:12:41.591Z,75201.66
2023-05-10T18:15:10.064Z,75207.78
2023-05-10T18:17:39.305Z,75215.91
2023-05-10T18:20:08.304Z,75215.91
2023-05-10T18:22:36.748Z,75220.00
2023-05-10T18:25:04.991Z,75226.13
2023-05-10T18:27:33.299Z,75230.19
2023-05-10T18:30:01.080Z,75234.28
2023-05-10T18:32:28.983Z,75238.34
2023-05-10T18:34:58.328Z,75246.50
2023-05-10T18:37:26.345Z,75250.56
2023-05-10T18:39:54.161Z,75258.72
2023-05-10T18:42:21.910Z,75262.81
2023-05-10T18:44:49.661Z,75266.88
2023-05-10T18:47:17.514Z,75270.97
2023-05-10T18:49:46.196Z,75277.06
2023-05-10T18:52:16.022Z,75285.22
2023-05-10T18:54:43.830Z,75281.16
2023-05-10T18:57:12.435Z,75295.41
2023-05-10T18:59:40.397Z,75295.41
2023-05-10T19:02:08.822Z,75307.66
2023-05-10T19:04:36.617Z,75307.66
2023-05-10T19:07:04.426Z,75311.72
2023-05-10T19:09:33.578Z,75319.88
2023-05-10T19:12:01.543Z,75315.81
2023-05-10T19:14:29.666Z,75319.88
2023-05-10T19:16:57.532Z,75328.03
2023-05-10T19:19:25.716Z,75332.09
2023-05-10T19:21:53.486Z,75332.09
2023-05-10T19:24:23.367Z,75332.09
2023-05-10T19:26:56.647Z,75332.09
2023-05-10T19:29:27.354Z,75332.09
2023-05-10T19:31:55.517Z,75336.19
2023-05-10T19:34:24.014Z,75330.06
2023-05-10T19:36:51.807Z,75340.25
2023-05-10T19:39:19.602Z,75336.19
2023-05-10T19:41:48.784Z,75344.34
2023-05-10T19:44:18.035Z,75346.38
2023-05-10T19:46:45.975Z,75340.25
2023-05-10T19:49:13.782Z,75338.22
2023-05-10T19:51:42.219Z,75336.19
2023-05-10T19:54:09.959Z,75342.28
2023-05-10T19:56:37.696Z,75348.41
2023-05-10T19:59:06.788Z,75352.50
2023-05-10T20:01:36.203Z,75354.53
2023-05-10T20:04:04.080Z,75354.53
2023-05-10T20:06:31.935Z,75352.50
2023-05-10T20:08:59.700Z,75348.41
2023-05-10T20:11:27.651Z,75354.53
2023-05-10T20:13:55.468Z,75352.50
2023-05-10T20:16:25.051Z,75364.72
2023-05-10T20:18:55.798Z,75360.66
2023-05-10T20:21:23.947Z,75368.78
2023-05-10T20:23:51.790Z,75374.91
2023-05-10T20:26:19.538Z,75372.88
2023-05-10T20:28:47.351Z,75372.88
2023-05-10T20:31:15.104Z,75385.09
2023-05-10T20:33:42.978Z,75385.09
2023-05-10T20:36:12.244Z,75385.09
2023-05-10T20:38:40.005Z,75389.19
2023-05-10T20:41:07.887Z,75389.19
2023-05-10T20:43:35.698Z,75385.09
2023-05-10T20:46:05.471Z,75393.25
2023-05-10T20:48:34.075Z,75391.22
2023-05-10T20:51:03.149Z,75397.34
2023-05-10T20:53:32.278Z,75391.22
2023-05-10T20:56:00.126Z,75395.28
2023-05-10T20:58:27.893Z,75397.34
2023-05-10T21:00:55.724Z,75399.38
2023-05-10T21:03:23.511Z,75401.41
2023-05-10T21:05:51.248Z,75401.41
2023-05-10T21:08:19.194Z,75403.44
2023-05-10T21:10:48.313Z,75405.50
2023-05-10T21:13:16.187Z,75403.44
2023-05-10T21:15:46.788Z,75401.41
2023-05-10T21:18:14.603Z,75401.41
2023-05-10T21:20:42.387Z,75401.41
2023-05-10T21:23:10.147Z,75405.50
2023-05-10T21:25:37.862Z,75409.56
2023-05-10T21:28:07.126Z,75415.69
2023-05-10T21:30:35.211Z,75413.66
2023-05-10T21:33:03.583Z,75413.66
2023-05-10T21:35:31.902Z,75413.66
2023-05-10T21:37:59.746Z,75423.84
2023-05-10T21:40:27.482Z,75425.88
2023-05-10T21:42:55.221Z,75425.88
2023-05-10T21:45:24.539Z,75434.03
2023-05-10T21:47:52.412Z,75434.03
2023-05-10T21:50:20.407Z,75442.19
2023-05-10T21:52:48.349Z,75429.94
2023-05-10T21:55:16.795Z,75427.91
2023-05-10T21:57:44.813Z,75421.78
2023-05-10T22:00:13.616Z,75429.94
2023-05-10T22:02:42.912Z,75425.88
2023-05-10T22:05:11.341Z,75432.00
2023-05-10T22:07:39.389Z,75429.94
2023-05-10T22:10:08.451Z,75429.94
2023-05-10T22:12:36.268Z,75429.94
2023-05-10T22:15:10.310Z,75434.03
2023-05-10T22:17:39.366Z,75429.94
2023-05-10T22:20:10.228Z,75429.94
2023-05-10T22:22:38.051Z,75440.13
2023-05-10T22:25:07.176Z,75440.13
2023-05-10T22:27:35.180Z,75434.03
2023-05-10T22:30:03.149Z,75450.34
2023-05-10T22:32:32.632Z,75442.19
2023-05-10T22:35:00.486Z,75442.19
2023-05-10T22:37:29.677Z,75446.25
2023-05-10T22:39:57.569Z,75434.03
2023-05-10T22:42:25.468Z,75442.19
2023-05-10T22:44:53.385Z,75442.19
2023-05-10T22:47:21.395Z,75442.19
2023-05-10T22:49:49.230Z,75446.25
2023-05-10T22:52:17.021Z,75446.25
2023-05-10T22:54:46.412Z,75450.34
2023-05-10T22:57:14.434Z,75452.38
2023-05-10T22:59:42.372Z,75450.34
2023-05-10T23:02:11.365Z,75454.41
2023-05-10T23:04:39.319Z,75442.19
2023-05-10T23:07:07.202Z,75442.19
2023-05-10T23:09:35.004Z,75448.28
2023-05-10T23:12:04.386Z,75444.22
2023-05-10T23:14:32.162Z,75442.19
2023-05-10T23:17:00.000Z,75440.13
2023-05-10T23:19:27.827Z,75440.13
2023-05-10T23:21:55.595Z,75438.09
2023-05-10T23:24:23.367Z,75434.03
2023-05-10T23:26:51.249Z,75425.88
2023-05-10T23:29:20.410Z,75425.88
2023-05-10T23:31:50.573Z,75434.03
2023-05-10T23:34:18.554Z,75434.03
2023-05-10T23:36:46.354Z,75440.13
2023-05-10T23:39:14.155Z,75442.19
2023-05-10T23:41:42.736Z,75446.25
2023-05-10T23:44:10.540Z,75450.34
2023-05-10T23:46:39.700Z,75444.22
2023-05-10T23:49:07.554Z,75444.22
2023-05-10T23:51:35.312Z,75446.25
2023-05-10T23:54:03.466Z,75446.25
2023-05-10T23:56:31.293Z,75448.28
2023-05-10T23:58:59.045Z,75450.34
